createdAt,value
2022-12-06T04:11:16.892Z,98117.97737301761
2022-12-06T04:14:16.368Z,98117.9979127861
2022-12-06T04:18:21.988Z,98122.87406310759
2022-12-06T04:43:42.095Z,98120.8967063647
2022-12-06T04:44:16.308Z,98125.14417757519
2022-12-06T04:47:16.771Z,98119.87012283804
2022-12-06T04:51:16.528Z,98124.90817909059
2022-12-06T04:54:16.298Z,98119.68011417348
2022-12-06T04:57:16.851Z,98122.18632301345
2022-12-06T05:01:16.394Z,98120.60229593441
2022-12-06T05:04:16.647Z,98124.54436775878
2022-12-06T05:07:16.588Z,98124.16841865076
2022-12-06T05:11:16.592Z,98124.15756997444
2022-12-06T05:14:16.991Z,98123.12384096275
2022-12-06T05:17:16.844Z,98128.2456372346
2022-12-06T05:21:20.448Z,98128.5047936695
2022-12-06T05:24:17.269Z,98131.79456169823
2022-12-06T05:27:17.044Z,98132.98688401026
2022-12-06T05:31:16.697Z,98134.9870691951
2022-12-06T05:34:16.511Z,98137.75691531652
2022-12-06T05:37:16.456Z,98133.61394558377
2022-12-06T05:41:17.540Z,98136.23609886899
2022-12-06T05:44:17.067Z,98128.54408911854
2022-12-06T05:47:16.671Z,98134.29999444012
2022-12-06T05:51:17.014Z,98134.49500348953
2022-12-06T05:54:17.393Z,98130.20398746894
2022-12-06T05:57:17.113Z,98132.13467551552
2022-12-06T06:01:16.129Z,98132.067805704
2022-12-06T06:04:16.592Z,98129.75177856098
2022-12-06T06:07:16.461Z,98132.16968739023
2022-12-06T06:11:16.276Z,98128.19834222466
2022-12-06T06:14:16.868Z,98127.7454204524
2022-12-06T06:17:17.180Z,98128.33999369878
2022-12-06T06:21:16.807Z,98126.99282860477
2022-12-06T06:24:16.992Z,98129.30404402108
2022-12-06T06:27:17.096Z,98129.23634279604
2022-12-06T06:31:16.534Z,98116.0725707063
2022-12-06T06:34:16.594Z,98122.45613582149
2022-12-06T06:37:16.254Z,98117.53530516704
2022-12-06T06:41:16.209Z,98112.02795519655
2022-12-06T06:44:16.737Z,98109.31579345265
2022-12-06T06:47:16.468Z,98109.10187160112
2022-12-06T06:51:16.241Z,98107.87732546446
2022-12-06T06:54:16.713Z,98108.68175982047
2022-12-06T06:57:18.059Z,98104.82086682534
2022-12-06T07:01:18.032Z,98109.56265921409
2022-12-06T07:04:17.160Z,98115.16773133293
2022-12-06T07:07:20.999Z,98111.0188996474
2022-12-06T07:11:16.209Z,98107.74996349905
2022-12-06T07:14:16.387Z,98100.70769766017
2022-12-06T07:17:16.498Z,98093.70640864235
2022-12-06T07:21:17.110Z,98086.03952875276
2022-12-06T07:24:17.033Z,98086.73062569786
2022-12-06T07:27:17.127Z,98088.18853948005
2022-12-06T07:31:19.921Z,98088.0738206188
2022-12-06T07:34:17.148Z,98088.52124481043
2022-12-06T07:37:19.273Z,98087.40671067576
2022-12-06T07:51:15.812Z,98092.1953123531
2022-12-06T07:54:16.927Z,98092.16254273492
2022-12-06T07:57:16.340Z,98089.6582025545
2022-12-06T08:01:18.036Z,98084.00385108596
2022-12-06T08:04:19.004Z,98083.26189591056
2022-12-06T08:07:17.845Z,98082.52810177773
2022-12-06T08:11:16.858Z,98082.27335687166
2022-12-06T08:14:17.180Z,98087.62155369215
2022-12-06T08:17:17.126Z,98089.22600446094
2022-12-06T08:21:16.773Z,98091.83287450252
2022-12-06T08:24:16.328Z,98094.94301526598
2022-12-06T08:27:16.272Z,98092.24276231683
2022-12-06T08:31:20.324Z,98095.13157994932
2022-12-06T08:34:17.468Z,98100.88775399423
2022-12-06T08:37:17.160Z,98101.62400929708
2022-12-06T08:42:25.175Z,98109.08252863832
2022-12-06T08:44:18.275Z,98112.25483794292
2022-12-06T08:47:16.641Z,98118.41231795149
2022-12-06T08:51:16.670Z,98122.8303881476
2022-12-06T08:54:18.889Z,98124.21195004563
2022-12-06T08:57:17.273Z,98127.38512558508
2022-12-06T09:01:18.558Z,98131.81842468277
2022-12-06T09:04:17.038Z,98130.93573425183
2022-12-06T09:07:16.700Z,98137.50786749016
2022-12-06T09:11:17.974Z,98136.23280865324
2022-12-06T09:14:21.826Z,98140.30999851739
2022-12-06T09:17:17.582Z,98142.90474792187
2022-12-06T09:21:19.906Z,98137.75345876795
2022-12-06T09:24:18.147Z,98135.4469106173
2022-12-06T09:27:18.915Z,98129.76638011148
2022-12-06T09:31:17.460Z,98128.02803500007
2022-12-06T09:34:17.242Z,98118.27990934985
2022-12-06T09:37:16.801Z,98117.80435275994
2022-12-06T09:41:31.904Z,98110.72367701246
2022-12-06T09:44:34.771Z,98111.9665010605
2022-12-06T09:47:28.422Z,98107.60186960365
2022-12-06T09:51:27.804Z,98107.82261250162
2022-12-06T09:54:33.694Z,98108.36873305726
2022-12-06T09:57:23.131Z,98100.05333683624
2022-12-06T10:01:28.275Z,98089.0360990954
2022-12-06T10:04:37.754Z,98090.00428954973
2022-12-06T10:07:27.810Z,98087.79697927303
2022-12-06T10:11:30.073Z,98080.68831038792
2022-12-06T10:14:30.826Z,98077.31440805252
2022-12-06T10:17:27.874Z,98074.8347682997
2022-12-06T10:21:25.175Z,98066.27221520101
2022-12-06T10:24:31.456Z,98064.31166741274
2022-12-06T10:27:23.157Z,98061.26284131246
2022-12-06T10:31:22.280Z,98054.7430311442
2022-12-06T10:34:21.087Z,98054.5258915526
2022-12-06T10:37:31.322Z,98047.09866992683
2022-12-06T10:41:22.724Z,98037.94562446751
2022-12-06T10:44:24.509Z,98037.2101725186
2022-12-06T10:47:22.509Z,98025.57873774508
2022-12-06T10:51:21.128Z,98019.74702456786
2022-12-06T10:54:25.839Z,98019.02837124032
2022-12-06T10:57:23.136Z,98005.38028259919
2022-12-06T11:01:21.016Z,98003.6489057017
2022-12-06T11:04:24.131Z,97996.80986165775
2022-12-06T11:07:21.806Z,97994.31322105734
2022-12-06T11:11:19.089Z,97990.72035124098
2022-12-06T11:14:23.204Z,97984.65813487634
2022-12-06T11:17:20.993Z,97977.74752591696
2022-12-06T11:21:23.637Z,97971.41414343525
2022-12-06T11:24:22.960Z,97970.2677107151
2022-12-06T11:27:21.792Z,97968.37959285013
2022-12-06T11:31:25.957Z,97972.15705349437
2022-12-06T11:34:27.045Z,97966.07282129428
2022-12-06T11:37:18.944Z,97958.51651822266
2022-12-06T11:41:21.260Z,97952.1492994028
2022-12-06T11:44:22.351Z,97947.29709480202
2022-12-06T11:47:20.956Z,97946.71106298959
2022-12-06T11:51:20.163Z,97948.5014713631
2022-12-06T11:54:25.345Z,97947.42681622434
2022-12-06T11:57:22.635Z,97943.84159703171
2022-12-06T12:01:16.076Z,97944.30119388757
2022-12-06T12:04:33.747Z,97940.55275838116
2022-12-06T12:07:22.202Z,97940.43444574252
2022-12-06T12:11:20.271Z,97938.87411063017
2022-12-06T12:14:23.702Z,97937.07597553579
2022-12-06T12:17:20.697Z,97937.64486489407
2022-12-06T12:21:27.474Z,97931.26213773678
2022-12-06T12:25:19.222Z,97931.3197320849
2022-12-06T12:27:33.659Z,97925.42176658139
2022-12-06T12:31:18.032Z,97918.88101165046
2022-12-06T12:34:19.772Z,97917.66949716242
2022-12-06T12:37:20.731Z,97911.92310925739
2022-12-06T12:41:28.519Z,97918.0822063486
2022-12-06T12:44:37.716Z,97915.82947630499
2022-12-06T12:47:18.493Z,97909.37503926699
2022-12-06T12:51:25.786Z,97908.74761732841
2022-12-06T12:54:24.090Z,97900.90693489803
2022-12-06T12:57:16.450Z,97899.60022193492
2022-12-06T13:01:27.535Z,97897.18676770627
2022-12-06T13:04:37.430Z,97895.59485953825
2022-12-06T13:07:21.079Z,97890.11588601914
2022-12-06T13:11:15.980Z,97889.92696877556
2022-12-06T13:14:19.490Z,97885.7079254109
2022-12-06T13:17:18.024Z,97884.14480510718
2022-12-06T13:21:21.466Z,97882.85343541848
2022-12-06T13:24:23.001Z,97884.34570347685
2022-12-06T13:27:20.017Z,97880.38332935257
2022-12-06T13:31:20.132Z,97874.27354657532
2022-12-06T13:34:23.817Z,97873.99774180126
2022-12-06T13:37:36.467Z,97874.91985857193
2022-12-06T13:42:39.043Z,97868.99016184281
2022-12-06T13:44:39.130Z,97868.55003030598
2022-12-06T13:47:50.158Z,97867.24919224481
2022-12-06T13:51:43.164Z,97868.22317990042
2022-12-06T13:54:32.522Z,97865.28448985181
2022-12-06T13:57:23.990Z,97869.88181983228
2022-12-06T14:11:20.097Z,97869.47173065312
2022-12-06T14:14:18.268Z,97866.13842223978
2022-12-06T14:17:38.191Z,97862.10784098587
2022-12-06T14:21:22.101Z,97861.24229660859
2022-12-06T14:24:34.363Z,97859.01507076019
2022-12-06T14:27:19.191Z,97860.11319138837
2022-12-06T14:31:22.171Z,97857.4183586244
2022-12-06T14:34:24.708Z,97852.60352647281
2022-12-06T14:37:20.940Z,97854.89223219555
2022-12-06T14:51:23.263Z,97845.45265819813
2022-12-06T14:54:17.853Z,97845.97659316068
2022-12-06T14:57:24.278Z,97847.76535525717
2022-12-06T15:01:21.243Z,97844.77849319638
2022-12-06T15:04:25.386Z,97851.58678986765
2022-12-06T15:07:32.456Z,97845.64600710341
2022-12-06T15:13:05.220Z,97849.45641328288
2022-12-06T15:14:18.777Z,97848.80113415804
2022-12-06T15:17:18.144Z,97845.97380606038
2022-12-06T15:21:17.059Z,97846.04878811158
2022-12-06T15:24:18.691Z,97846.44392982214
2022-12-06T15:27:17.598Z,97854.48128158397
2022-12-06T15:31:20.390Z,97854.7623111914
2022-12-06T15:34:24.880Z,97858.23467390049
2022-12-06T15:37:39.050Z,97861.52864062041
2022-12-06T15:41:18.103Z,97862.68148066336
2022-12-06T15:44:18.345Z,97860.82151780912
2022-12-06T15:47:17.344Z,97861.53880744793
2022-12-06T15:51:21.100Z,97859.21866171816
2022-12-06T15:54:19.996Z,97855.18288350754
2022-12-06T15:57:17.228Z,97854.43488174172
2022-12-06T16:01:19.324Z,97847.69997481232
2022-12-06T16:04:18.920Z,97851.40220965627
2022-12-06T16:07:19.431Z,97845.87024651948
2022-12-06T16:11:19.010Z,97847.69486517046
2022-12-06T16:14:16.426Z,97840.39251674118
2022-12-06T16:17:16.472Z,97841.06303563768
2022-12-06T16:21:23.119Z,97840.8120844831
2022-12-06T16:24:17.064Z,97839.79676710689
2022-12-06T16:27:16.901Z,97838.06505747371
2022-12-06T16:31:16.694Z,97839.43731949515
2022-12-06T16:34:17.992Z,97839.10750011433
2022-12-06T16:37:18.077Z,97834.37231555545
2022-12-06T16:41:19.858Z,97840.2017587136
2022-12-06T16:44:16.798Z,97840.71055328014
2022-12-06T16:47:16.804Z,97841.91959747262
2022-12-06T16:51:16.192Z,97841.29833487194
2022-12-06T16:54:16.870Z,97840.01967550827
2022-12-06T16:57:16.615Z,97839.54087698096
2022-12-06T17:01:23.671Z,97841.99164380418
2022-12-06T17:04:17.984Z,97845.03182279451
2022-12-06T17:07:17.494Z,97846.96768392048
2022-12-06T17:12:21.255Z,97846.66964454815
2022-12-06T17:14:17.843Z,97850.51039386382
2022-12-06T17:17:19.159Z,97840.73730302586
2022-12-06T17:21:17.382Z,97837.47761840634
2022-12-06T17:24:18.532Z,97839.48319411468
2022-12-06T17:27:17.103Z,97835.18531011346
2022-12-06T17:31:16.449Z,97837.81894740945
2022-12-06T17:34:17.554Z,97839.18539206161
2022-12-06T17:37:16.922Z,97839.14668604784
2022-12-06T17:51:16.238Z,97831.3848705516
2022-12-06T17:54:17.164Z,97823.3178065616
2022-12-06T17:57:18.664Z,97823.0976215476
2022-12-06T18:01:16.884Z,97820.5167987648
2022-12-06T18:04:17.158Z,97818.12011167614
2022-12-06T18:07:17.493Z,97818.90961696753
2022-12-06T18:11:18.542Z,97822.3846924722
2022-12-06T18:14:17.464Z,97821.1301375268
2022-12-06T18:17:17.070Z,97821.19582955698
2022-12-06T18:21:17.940Z,97816.75132790828
2022-12-06T18:24:22.722Z,97810.4160460433
2022-12-06T18:27:17.716Z,97812.10778335623
2022-12-06T18:31:17.111Z,97815.86018947737
2022-12-06T18:34:17.081Z,97818.60914344645
2022-12-06T18:37:16.840Z,97819.58415126166
2022-12-06T18:41:18.362Z,97821.50049872661
2022-12-06T18:44:16.831Z,97820.60456359001
2022-12-06T18:47:16.423Z,97818.14848104081
2022-12-06T18:51:18.924Z,97823.13987932753
2022-12-06T18:54:16.997Z,97817.51013959078
2022-12-06T18:57:16.831Z,97815.55285768682
2022-12-06T19:01:18.532Z,97815.45546167449
2022-12-06T19:04:18.849Z,97820.30245755853
2022-12-06T19:07:19.386Z,97819.81562264476
2022-12-06T19:11:19.252Z,97816.22028621419
2022-12-06T19:14:16.345Z,97822.00394298285
2022-12-06T19:17:16.263Z,97830.54126353703
2022-12-06T19:21:17.152Z,97822.55061308546
2022-12-06T19:24:18.977Z,97823.58073127073
2022-12-06T19:27:20.455Z,97824.37916599294
2022-12-06T19:31:16.886Z,97822.52425721589
2022-12-06T19:34:18.830Z,97820.84415823876
2022-12-06T19:37:17.564Z,97817.75245230165
2022-12-06T19:41:17.309Z,97812.59934098242
2022-12-06T19:44:16.313Z,97811.52380881319
2022-12-06T19:47:16.718Z,97813.10279770286
2022-12-06T19:51:16.702Z,97810.72259406703
2022-12-06T19:54:19.317Z,97809.33530289521
2022-12-06T19:57:16.658Z,97803.80368428883
2022-12-06T20:01:18.750Z,97810.14758220049
2022-12-06T20:04:18.304Z,97809.58153745072
2022-12-06T20:07:16.507Z,97809.26671596518
2022-12-06T20:12:03.621Z,97812.10502426537
2022-12-06T20:14:18.042Z,97813.3458108161
2022-12-06T20:17:19.479Z,97813.40353292543
2022-12-06T20:21:16.835Z,97812.42306671964
2022-12-06T20:24:19.143Z,97808.04558868158
2022-12-06T20:27:16.985Z,97806.68161064797
2022-12-06T20:31:19.153Z,97808.79483619568
2022-12-06T20:34:18.118Z,97812.80902264839
2022-12-06T20:37:16.870Z,97809.85090897203
2022-12-06T20:41:19.829Z,97816.9041396813
2022-12-06T20:44:17.688Z,97814.76586475538
2022-12-06T20:47:17.700Z,97812.90419689726
2022-12-06T20:51:19.906Z,97806.9500293567
2022-12-06T20:54:18.338Z,97811.57391443475
2022-12-06T20:57:17.265Z,97808.43221394159
2022-12-06T21:01:20.275Z,97811.10562125307
2022-12-06T21:04:17.073Z,97809.19523920413
2022-12-06T21:07:17.234Z,97806.10411120429
2022-12-06T21:11:23.131Z,97810.91079953105
2022-12-06T21:14:17.261Z,97809.40554513477
2022-12-06T21:17:16.832Z,97812.98179097446
2022-12-06T21:21:20.991Z,97818.01712002332
2022-12-06T21:24:19.464Z,97814.63527638999
2022-12-06T21:27:17.091Z,97815.99374673277
2022-12-06T21:31:16.886Z,97818.22817159003
2022-12-06T21:34:17.977Z,97813.64171518582
2022-12-06T21:37:17.199Z,97807.92618136079
2022-12-06T21:41:17.088Z,97810.27042162033
2022-12-06T21:44:17.293Z,97812.96014359943
2022-12-06T21:47:17.145Z,97815.22368318558
2022-12-06T21:51:17.627Z,97820.90944702266
2022-12-06T21:54:16.980Z,97816.73141005919
2022-12-06T21:57:16.997Z,97813.33733057932
2022-12-06T22:01:19.129Z,97811.84414583894
2022-12-06T22:04:16.690Z,97814.50525843434
2022-12-06T22:07:16.823Z,97809.22416822972
2022-12-06T22:11:18.332Z,97808.46913539465
2022-12-06T22:14:16.362Z,97806.72849980892
2022-12-06T22:17:16.355Z,97803.06443612018
2022-12-06T22:21:18.633Z,97801.78690409478
2022-12-06T22:24:16.969Z,97805.36221565871
2022-12-06T22:27:16.650Z,97799.07160531098
2022-12-06T22:31:18.585Z,97793.3303776473
2022-12-06T22:34:16.073Z,97794.94326086219
2022-12-06T22:37:16.078Z,97795.06782997782
2022-12-06T22:41:17.239Z,97790.99224111214
2022-12-06T22:44:18.137Z,97792.60358966693
2022-12-06T22:47:16.858Z,97793.49632738017
2022-12-06T22:51:17.804Z,97795.13779677253
2022-12-06T22:54:16.777Z,97795.44427969688
2022-12-06T22:57:16.264Z,97796.20256919335
2022-12-06T23:01:19.909Z,97794.98812790168
2022-12-06T23:04:16.935Z,97794.31761604137
2022-12-06T23:07:16.849Z,97798.835207536
2022-12-06T23:11:18.450Z,97797.63866805013
2022-12-06T23:14:16.853Z,97796.10871365898
2022-12-06T23:17:16.774Z,97791.02872690358
2022-12-06T23:21:19.019Z,97790.41711011129
2022-12-06T23:24:17.040Z,97791.99441078103
2022-12-06T23:27:17.482Z,97794.87426422822
2022-12-06T23:31:18.668Z,97795.50919872455
2022-12-06T23:34:19.486Z,97794.42935944886
2022-12-06T23:37:16.458Z,97788.41812113817
2022-12-06T23:41:23.959Z,97789.72998234826
2022-12-06T23:44:22.187Z,97784.10004920824
2022-12-06T23:47:22.040Z,97782.93506394704
2022-12-06T23:51:19.032Z,97776.41799517901
2022-12-06T23:54:17.714Z,97777.86591322963
2022-12-06T23:57:16.644Z,97772.01523612435
